createdAt,value
2022-10-22T00:02:24.813Z,9.93
2022-10-22T00:04:51.651Z,14.05
2022-10-22T00:07:18.841Z,13.93
2022-10-22T00:09:45.902Z,13.55
2022-10-22T00:12:14.178Z,9.63
2022-10-22T00:14:41.428Z,17.33
2022-10-22T00:17:11.209Z,8.02
2022-10-22T00:19:39.001Z,9.38
2022-10-22T00:22:06.262Z,17.55
2022-10-22T00:24:34.054Z,11.73
2022-10-22T00:27:01.437Z,10.37
2022-10-22T00:29:28.242Z,8.02
2022-10-22T00:34:22.493Z,10.05
2022-10-22T00:36:50.322Z,10.93
2022-10-22T00:39:19.572Z,8.80
2022-10-22T00:41:48.646Z,13.05
2022-10-22T00:44:52.747Z,12.05
2022-10-22T00:47:20.071Z,13.68
2022-10-22T00:49:47.167Z,14.50
2022-10-22T00:52:14.314Z,9.80
2022-10-22T00:54:42.588Z,12.40
2022-10-22T00:57:09.677Z,10.70
2022-10-22T00:59:38.259Z,9.77
2022-10-22T01:02:04.982Z,12.55
2022-10-22T01:04:31.614Z,10.83
2022-10-22T01:06:58.267Z,11.88
2022-10-22T01:09:49.205Z,8.48
2022-10-22T01:12:43.466Z,13.48
2022-10-22T01:15:43.495Z,13.02
2022-10-22T01:18:24.369Z,8.43
2022-10-22T01:21:00.365Z,9.48
2022-10-22T01:23:39.044Z,11.00
2022-10-22T01:26:19.621Z,10.35
2022-10-22T01:29:07.170Z,8.77
2022-10-22T01:31:39.888Z,15.03
2022-10-22T01:34:09.428Z,13.98
2022-10-22T01:36:38.090Z,8.63
2022-10-22T01:39:05.855Z,10.82
2022-10-22T01:41:32.405Z,7.85
2022-10-22T01:43:58.939Z,11.77
2022-10-22T01:46:27.813Z,7.82
2022-10-22T01:49:12.877Z,10.55
2022-10-22T01:52:21.307Z,10.77
2022-10-22T01:55:07.071Z,10.90
2022-10-22T01:58:05.205Z,13.70
2022-10-22T02:00:31.838Z,11.98
2022-10-22T02:03:10.239Z,10.02
2022-10-22T02:05:44.162Z,8.75
2022-10-22T02:08:41.185Z,10.70
2022-10-22T02:11:08.017Z,7.53
2022-10-22T02:13:39.869Z,12.05
2022-10-22T02:16:09.485Z,8.00
2022-10-22T02:18:39.984Z,7.50
2022-10-22T02:23:35.445Z,10.70
2022-10-22T02:26:18.269Z,7.63
2022-10-22T02:28:57.311Z,9.98
2022-10-22T02:31:29.897Z,10.88
2022-10-22T02:34:01.269Z,8.18
2022-10-22T02:36:28.874Z,12.10
2022-10-22T02:38:56.476Z,9.88
2022-10-22T02:41:23.476Z,11.07
2022-10-22T02:43:56.653Z,11.65
2022-10-22T02:46:24.340Z,9.93
2022-10-22T02:48:50.799Z,11.50
2022-10-22T02:51:17.338Z,12.88
2022-10-22T02:53:43.851Z,23.42
2022-10-22T02:56:10.881Z,7.53
2022-10-22T02:58:37.409Z,13.75
2022-10-22T03:01:03.981Z,9.73
2022-10-22T03:03:30.540Z,12.30
2022-10-22T03:05:57.046Z,10.35
2022-10-22T03:08:23.610Z,10.55
2022-10-22T03:10:50.178Z,12.65
2022-10-22T03:13:16.671Z,9.63
2022-10-22T03:15:43.164Z,12.02
2022-10-22T03:18:09.730Z,10.35
2022-10-22T03:20:36.320Z,14.15
2022-10-22T03:23:03.611Z,11.30
2022-10-22T03:25:34.439Z,8.53
2022-10-22T03:28:08.853Z,10.15
2022-10-22T03:30:35.395Z,10.07
2022-10-22T03:33:01.893Z,11.57
2022-10-22T03:35:28.484Z,13.32
2022-10-22T03:37:55.250Z,13.67
2022-10-22T03:40:22.076Z,13.35
2022-10-22T03:42:48.624Z,9.40
2022-10-22T03:45:15.195Z,12.52
2022-10-22T03:47:42.259Z,9.05
2022-10-22T03:50:09.593Z,13.33
2022-10-22T03:52:38.771Z,8.60
2022-10-22T03:55:08.790Z,11.73
2022-10-22T03:57:35.574Z,14.00
2022-10-22T04:00:03.911Z,14.38
2022-10-22T04:02:30.427Z,14.73
2022-10-22T04:04:56.922Z,16.90
2022-10-22T04:07:23.489Z,18.20
2022-10-22T04:09:49.944Z,8.30
2022-10-22T04:12:16.464Z,15.32
2022-10-22T04:14:43.049Z,12.63
2022-10-22T04:17:09.583Z,10.98
2022-10-22T04:19:36.213Z,13.13
2022-10-22T04:22:02.717Z,14.48
2022-10-22T04:24:31.615Z,11.77
2022-10-22T04:26:58.985Z,9.80
2022-10-22T04:29:25.962Z,10.02
2022-10-22T04:31:53.009Z,10.27
2022-10-22T04:34:19.503Z,13.52
2022-10-22T04:36:46.013Z,6.68
2022-10-22T04:39:12.653Z,6.93
2022-10-22T04:41:39.550Z,12.50
2022-10-22T04:44:09.884Z,16.17
2022-10-22T04:46:40.055Z,17.95
2022-10-22T04:49:06.602Z,16.58
2022-10-22T04:51:33.108Z,7.90
2022-10-22T04:53:59.693Z,12.00
2022-10-22T04:56:28.830Z,11.27
2022-10-22T04:59:01.239Z,13.93
2022-10-22T05:01:30.799Z,8.85
2022-10-22T05:03:59.464Z,11.97
2022-10-22T05:06:26.818Z,11.73
2022-10-22T05:08:56.291Z,10.00
2022-10-22T05:11:27.880Z,12.57
2022-10-22T05:13:58.207Z,11.45
2022-10-22T05:16:25.157Z,10.97
2022-10-22T05:18:51.853Z,16.88
2022-10-22T05:21:20.456Z,10.27
2022-10-22T05:23:48.622Z,10.50
2022-10-22T05:26:18.456Z,14.00
2022-10-22T05:28:45.310Z,9.57
2022-10-22T05:31:13.390Z,8.80
2022-10-22T05:33:40.812Z,11.35
2022-10-22T05:36:08.551Z,8.90
2022-10-22T05:38:35.663Z,7.15
2022-10-22T05:41:08.750Z,10.43
2022-10-22T05:43:35.941Z,9.57
2022-10-22T05:46:11.202Z,8.57
2022-10-22T05:48:38.528Z,10.25
2022-10-22T05:51:12.833Z,10.45
2022-10-22T05:53:42.368Z,7.23
2022-10-22T05:56:16.080Z,13.10
2022-10-22T05:58:44.840Z,10.18
2022-10-22T06:01:21.554Z,12.48
2022-10-22T06:03:49.304Z,15.77
2022-10-22T06:06:26.060Z,11.17
2022-10-22T06:08:54.619Z,7.90
2022-10-22T06:11:23.277Z,14.77
2022-10-22T06:13:50.665Z,12.15
2022-10-22T06:16:17.477Z,13.15
2022-10-22T06:18:44.169Z,11.80
2022-10-22T06:21:12.746Z,14.35
2022-10-22T06:23:40.271Z,11.40
2022-10-22T06:26:07.744Z,8.38
2022-10-22T06:28:35.002Z,16.23
2022-10-22T06:31:03.035Z,14.70
2022-10-22T06:33:32.466Z,6.15
2022-10-22T06:36:07.804Z,9.63
2022-10-22T06:38:34.656Z,7.68
2022-10-22T06:41:10.371Z,8.32
2022-10-22T06:43:37.189Z,10.70
2022-10-22T06:46:09.688Z,8.32
2022-10-22T06:48:37.974Z,14.75
2022-10-22T06:51:07.412Z,13.80
2022-10-22T06:53:34.983Z,10.30
2022-10-22T06:56:09.124Z,11.50
2022-10-22T06:58:36.435Z,11.43
2022-10-22T07:01:12.554Z,11.23
2022-10-22T07:03:40.798Z,11.40
2022-10-22T07:06:10.749Z,13.27
2022-10-22T07:08:38.162Z,6.63
2022-10-22T07:11:11.696Z,8.57
2022-10-22T07:13:38.476Z,5.90
2022-10-22T07:16:06.701Z,12.25
2022-10-22T07:18:34.031Z,10.85
2022-10-22T07:21:00.945Z,13.63
2022-10-22T07:23:28.613Z,7.97
2022-10-22T07:28:22.838Z,6.57
2022-10-22T07:30:49.663Z,10.43
2022-10-22T07:33:16.481Z,10.87
2022-10-22T07:35:43.282Z,11.52
2022-10-22T07:38:09.834Z,12.88
2022-10-22T07:40:36.880Z,8.75
2022-10-22T07:43:03.987Z,14.40
2022-10-22T07:45:30.771Z,12.90
2022-10-22T07:47:57.467Z,9.88
2022-10-22T07:50:23.997Z,9.40
2022-10-22T07:52:51.019Z,12.20
2022-10-22T07:55:18.128Z,7.18
2022-10-22T07:57:44.640Z,6.90
2022-10-22T08:00:11.705Z,8.60
2022-10-22T08:02:38.530Z,7.50
2022-10-22T08:05:05.984Z,6.25
2022-10-22T08:07:32.561Z,7.15
2022-10-22T08:09:59.101Z,11.70
2022-10-22T08:12:25.638Z,13.02
2022-10-22T08:14:52.235Z,12.48
2022-10-22T08:17:18.725Z,11.15
2022-10-22T08:19:45.286Z,7.57
2022-10-22T08:22:11.886Z,9.07
2022-10-22T08:24:38.587Z,8.40
2022-10-22T08:27:05.122Z,10.43
2022-10-22T08:29:31.737Z,11.02
2022-10-22T08:31:58.387Z,12.20
2022-10-22T08:34:24.930Z,9.10
2022-10-22T08:36:51.493Z,12.85
2022-10-22T08:39:18.035Z,15.15
2022-10-22T08:41:56.691Z,9.25
2022-10-22T08:44:48.243Z,14.35
2022-10-22T08:47:18.610Z,14.90
2022-10-22T08:49:48.197Z,6.47
2022-10-22T08:52:17.681Z,10.63
2022-10-22T08:54:56.350Z,11.15
2022-10-22T08:57:42.401Z,9.82
2022-10-22T09:00:20.869Z,10.17
2022-10-22T09:03:08.342Z,8.43
2022-10-22T09:06:12.224Z,13.90
2022-10-22T09:08:40.510Z,11.13
2022-10-22T09:11:13.095Z,9.25
2022-10-22T09:13:44.952Z,11.27
2022-10-22T09:16:14.381Z,8.70
2022-10-22T09:18:54.717Z,8.15
2022-10-22T09:21:33.572Z,12.02
2022-10-22T09:24:04.684Z,11.35
2022-10-22T09:26:36.624Z,7.93
2022-10-22T09:29:03.890Z,13.07
2022-10-22T09:31:32.784Z,5.35
2022-10-22T09:34:05.826Z,10.60
2022-10-22T09:36:32.485Z,7.60
2022-10-22T09:39:00.208Z,12.30
2022-10-22T09:41:30.049Z,7.53
2022-10-22T09:43:57.200Z,17.45
2022-10-22T09:46:28.296Z,9.75
2022-10-22T09:49:03.450Z,9.02
2022-10-22T09:52:00.001Z,7.43
2022-10-22T09:54:32.783Z,12.98
2022-10-22T09:57:22.033Z,14.30
2022-10-22T09:59:50.799Z,7.97
2022-10-22T10:02:37.631Z,10.27
2022-10-22T10:05:06.622Z,11.13
2022-10-22T10:07:35.544Z,10.40
2022-10-22T10:10:02.926Z,11.55
2022-10-22T10:12:32.463Z,11.13
2022-10-22T10:15:05.304Z,12.75
2022-10-22T10:17:50.530Z,11.37
2022-10-22T10:20:20.024Z,10.70
2022-10-22T10:23:23.000Z,11.88
2022-10-22T10:26:20.653Z,20.60
2022-10-22T10:29:17.963Z,13.85
2022-10-22T10:32:08.504Z,11.20
2022-10-22T10:34:53.238Z,12.43
2022-10-22T10:37:25.021Z,23.83
2022-10-22T10:39:57.203Z,10.68
2022-10-22T10:42:57.784Z,11.15
2022-10-22T10:45:36.535Z,14.00
2022-10-22T10:48:15.506Z,10.25
2022-10-22T10:50:53.422Z,15.15
2022-10-22T10:53:35.012Z,10.20
2022-10-22T10:56:04.447Z,14.10
2022-10-22T10:58:37.096Z,11.90
2022-10-22T11:01:36.740Z,11.77
2022-10-22T11:04:13.413Z,13.80
2022-10-22T11:06:42.058Z,7.18
2022-10-22T11:09:25.154Z,13.90
2022-10-22T11:12:01.508Z,11.87
2022-10-22T11:14:55.905Z,13.05
2022-10-22T11:17:24.778Z,19.63
2022-10-22T11:20:04.908Z,14.10
2022-10-22T11:22:44.381Z,11.25
2022-10-22T11:25:25.653Z,11.57
2022-10-22T11:28:01.356Z,17.33
2022-10-22T11:30:37.761Z,12.60
2022-10-22T11:33:11.456Z,14.43
2022-10-22T11:35:42.567Z,10.20
2022-10-22T11:38:14.354Z,16.47
2022-10-22T11:40:48.722Z,12.73
2022-10-22T11:43:51.572Z,16.33
2022-10-22T11:46:18.076Z,13.50
2022-10-22T11:48:44.689Z,13.45
2022-10-22T11:51:40.319Z,17.50
2022-10-22T11:54:28.664Z,9.65
2022-10-22T11:57:15.689Z,13.10
2022-10-22T11:59:51.365Z,15.85
2022-10-22T12:02:30.445Z,8.55
2022-10-22T12:05:22.686Z,8.73
2022-10-22T12:08:03.869Z,11.05
2022-10-22T12:10:48.802Z,8.82
2022-10-22T12:13:23.801Z,23.70
2022-10-22T12:15:54.690Z,11.05
2022-10-22T12:18:25.999Z,15.03
2022-10-22T12:20:55.474Z,11.23
2022-10-22T12:23:28.841Z,8.07
2022-10-22T12:25:55.444Z,8.18
2022-10-22T12:28:22.728Z,7.75
2022-10-22T12:30:49.262Z,10.03
2022-10-22T12:33:22.252Z,8.02
2022-10-22T12:35:52.891Z,10.40
2022-10-22T12:38:23.211Z,9.00
2022-10-22T12:40:51.523Z,9.45
2022-10-22T12:43:23.698Z,10.03
2022-10-22T12:45:51.415Z,8.45
2022-10-22T12:48:35.940Z,9.32
2022-10-22T12:51:04.957Z,12.98
2022-10-22T12:53:37.854Z,6.35
2022-10-22T12:56:17.947Z,8.07
2022-10-22T12:58:53.029Z,7.80
2022-10-22T13:01:19.932Z,8.93
2022-10-22T13:03:52.495Z,12.65
2022-10-22T13:06:18.985Z,9.25
2022-10-22T13:09:07.129Z,11.17
2022-10-22T13:11:42.498Z,12.02
2022-10-22T13:14:29.570Z,11.15
2022-10-22T13:17:14.986Z,14.68
2022-10-22T13:19:55.302Z,7.25
2022-10-22T13:22:38.187Z,11.77
2022-10-22T13:25:13.638Z,7.78
2022-10-22T13:27:44.623Z,10.88
2022-10-22T13:30:24.601Z,11.90
2022-10-22T13:32:57.255Z,11.98
2022-10-22T13:35:27.655Z,8.80
2022-10-22T13:37:54.230Z,7.13
2022-10-22T13:40:21.468Z,8.77
2022-10-22T13:42:48.014Z,7.15
2022-10-22T13:45:15.600Z,9.57
2022-10-22T13:47:48.055Z,8.73
2022-10-22T13:50:16.760Z,12.13
2022-10-22T13:52:46.249Z,9.07
2022-10-22T13:55:27.348Z,12.45
2022-10-22T13:58:01.754Z,7.07
2022-10-22T14:00:28.341Z,11.23
2022-10-22T14:02:58.091Z,8.40
2022-10-22T14:05:25.160Z,11.90
2022-10-22T14:07:52.799Z,9.48
2022-10-22T14:10:22.381Z,7.43
2022-10-22T14:12:52.475Z,14.10
2022-10-22T14:15:23.991Z,8.30
2022-10-22T14:17:54.743Z,11.35
2022-10-22T14:20:23.954Z,7.38
2022-10-22T14:22:51.468Z,9.50
2022-10-22T14:25:20.728Z,10.23
2022-10-22T14:27:47.614Z,10.10
2022-10-22T14:30:17.071Z,9.32
2022-10-22T14:32:43.987Z,7.80
2022-10-22T14:35:14.195Z,10.02
2022-10-22T14:37:41.094Z,8.03
2022-10-22T14:40:09.508Z,9.38
2022-10-22T14:42:40.671Z,5.88
2022-10-22T14:45:16.311Z,11.10
2022-10-22T14:47:42.971Z,9.57
2022-10-22T14:50:09.985Z,4.93
2022-10-22T14:52:39.540Z,7.88
2022-10-22T14:55:06.957Z,9.48
2022-10-22T14:57:33.429Z,7.53
2022-10-22T15:00:00.051Z,10.63
2022-10-22T15:02:26.737Z,12.27
2022-10-22T15:04:53.674Z,8.27
2022-10-22T15:07:21.505Z,7.47
2022-10-22T15:09:48.087Z,10.68
2022-10-22T15:12:14.690Z,9.30
2022-10-22T15:14:41.187Z,8.40
2022-10-22T15:17:07.740Z,12.35
2022-10-22T15:19:34.324Z,9.20
2022-10-22T15:22:00.809Z,9.95
2022-10-22T15:24:27.332Z,13.98
2022-10-22T15:26:54.876Z,8.33
2022-10-22T15:29:21.409Z,9.43
2022-10-22T15:31:53.755Z,12.00
2022-10-22T15:34:23.496Z,13.43
2022-10-22T15:36:50.854Z,6.97
2022-10-22T15:39:17.948Z,8.47
2022-10-22T15:41:44.486Z,11.60
2022-10-22T15:44:20.495Z,6.88
2022-10-22T15:46:47.168Z,12.10
2022-10-22T15:49:14.310Z,10.68
2022-10-22T15:51:40.825Z,10.13
2022-10-22T15:54:10.136Z,11.15
2022-10-22T15:56:36.958Z,8.77
2022-10-22T15:59:04.123Z,9.40
2022-10-22T16:01:32.737Z,9.70
2022-10-22T16:04:00.375Z,6.27
2022-10-22T16:06:32.050Z,7.45
2022-10-22T16:09:01.126Z,6.30
2022-10-22T16:11:29.132Z,13.15
2022-10-22T16:13:57.396Z,10.27
2022-10-22T16:16:25.757Z,12.57
2022-10-22T16:18:52.976Z,9.05
2022-10-22T16:21:21.329Z,9.45
2022-10-22T16:23:48.665Z,13.75
2022-10-22T16:26:16.435Z,12.38
2022-10-22T16:28:44.017Z,14.27
2022-10-22T16:31:12.807Z,12.20
2022-10-22T16:33:47.803Z,14.48
2022-10-22T16:36:19.221Z,13.68
2022-10-22T16:38:46.999Z,11.02
2022-10-22T16:41:15.206Z,10.43
2022-10-22T16:43:43.096Z,15.02
2022-10-22T16:46:10.501Z,15.88
2022-10-22T16:48:42.128Z,15.18
2022-10-22T16:51:12.431Z,11.43
2022-10-22T16:53:39.003Z,17.97
2022-10-22T16:56:09.681Z,19.75
2022-10-22T16:58:36.504Z,11.52
2022-10-22T17:01:09.786Z,17.25
2022-10-22T17:03:37.260Z,14.23
2022-10-22T17:06:04.786Z,10.33
2022-10-22T17:08:32.069Z,9.93
2022-10-22T17:10:58.614Z,12.15
2022-10-22T17:13:25.197Z,11.35
2022-10-22T17:15:51.708Z,9.07
2022-10-22T17:18:18.462Z,16.63
2022-10-22T17:20:44.972Z,11.38
2022-10-22T17:23:11.531Z,14.02
2022-10-22T17:25:44.665Z,11.48
2022-10-22T17:28:12.140Z,8.40
2022-10-22T17:30:40.772Z,11.60
2022-10-22T17:33:08.593Z,9.10
2022-10-22T17:35:39.985Z,7.10
2022-10-22T17:38:07.671Z,11.10
2022-10-22T17:40:39.036Z,12.77
2022-10-22T17:43:05.641Z,10.40
2022-10-22T17:45:32.208Z,24.55
2022-10-22T17:47:58.718Z,7.75
2022-10-22T17:50:25.245Z,13.70
2022-10-22T17:52:51.792Z,12.50
2022-10-22T17:55:18.371Z,9.47
2022-10-22T17:57:44.895Z,13.13
2022-10-22T18:00:13.810Z,18.50
2022-10-22T18:02:42.603Z,15.23
2022-10-22T18:05:09.795Z,14.35
2022-10-22T18:07:36.385Z,15.33
2022-10-22T18:10:03.530Z,10.52
2022-10-22T18:12:30.044Z,17.33
2022-10-22T18:14:56.746Z,16.73
2022-10-22T18:17:23.335Z,22.00
2022-10-22T18:19:49.874Z,18.73
2022-10-22T18:22:16.410Z,15.55
2022-10-22T18:24:43.008Z,11.90
2022-10-22T18:27:09.525Z,17.92
2022-10-22T18:29:36.924Z,16.05
2022-10-22T18:32:08.336Z,16.57
2022-10-22T18:34:38.849Z,13.20
2022-10-22T18:37:05.438Z,15.52
2022-10-22T18:39:32.031Z,17.70
2022-10-22T18:41:58.565Z,16.35
2022-10-22T18:44:25.047Z,15.13
2022-10-22T18:46:51.617Z,12.15
2022-10-22T18:49:19.468Z,19.65
2022-10-22T18:51:48.673Z,13.88
2022-10-22T18:54:23.926Z,14.18
2022-10-22T18:56:51.508Z,14.03
2022-10-22T18:59:21.234Z,16.17
2022-10-22T19:01:47.965Z,22.00
2022-10-22T19:04:14.589Z,18.45
2022-10-22T19:06:45.230Z,18.13
2022-10-22T19:09:13.808Z,15.97
2022-10-22T19:11:40.430Z,14.32
2022-10-22T19:14:06.991Z,19.38
2022-10-22T19:16:35.199Z,18.10
2022-10-22T19:19:05.019Z,17.58
2022-10-22T19:21:32.245Z,17.70
2022-10-22T19:24:00.186Z,20.48
2022-10-22T19:26:28.824Z,16.58
2022-10-22T19:28:56.271Z,15.07
2022-10-22T19:31:24.558Z,16.52
2022-10-22T19:33:54.492Z,22.20
2022-10-22T19:36:27.921Z,27.60
2022-10-22T19:38:54.760Z,22.67
2022-10-22T19:41:23.038Z,29.95
2022-10-22T19:43:52.093Z,20.95
2022-10-22T19:46:19.821Z,26.80
2022-10-22T19:48:46.747Z,27.45
2022-10-22T19:51:19.332Z,25.65
2022-10-22T19:53:47.706Z,26.40
2022-10-22T19:56:18.469Z,23.05
2022-10-22T19:58:45.518Z,20.53
2022-10-22T20:01:14.417Z,21.45
2022-10-22T20:03:41.800Z,21.52
2022-10-22T20:06:10.620Z,25.95
2022-10-22T20:08:38.162Z,22.52
2022-10-22T20:11:10.675Z,18.27
2022-10-22T20:16:09.580Z,22.55
2022-10-22T20:18:36.718Z,24.15
2022-10-22T20:21:07.644Z,20.45
2022-10-22T20:23:34.895Z,16.00
2022-10-22T20:26:01.600Z,24.25
2022-10-22T20:28:28.282Z,21.98
2022-10-22T20:30:54.824Z,17.58
2022-10-22T20:33:21.495Z,15.10
2022-10-22T20:36:01.344Z,18.00
2022-10-22T20:38:28.715Z,16.95
2022-10-22T20:41:02.236Z,21.73
2022-10-22T20:43:28.896Z,14.45
2022-10-22T20:45:55.432Z,25.10
2022-10-22T20:48:26.578Z,17.37
2022-10-22T20:50:54.226Z,18.08
2022-10-22T20:53:21.351Z,13.93
2022-10-22T20:55:50.409Z,23.58
2022-10-22T20:58:22.359Z,23.98
2022-10-22T21:00:51.702Z,23.37
2022-10-22T21:03:18.243Z,20.13
2022-10-22T21:05:44.825Z,22.48
2022-10-22T21:08:17.223Z,22.48
2022-10-22T21:10:46.381Z,14.43
2022-10-22T21:13:13.850Z,18.60
2022-10-22T21:15:40.468Z,17.67
2022-10-22T21:18:07.701Z,18.38
2022-10-22T21:20:34.574Z,23.02
2022-10-22T21:23:01.164Z,19.70
2022-10-22T21:25:27.677Z,15.47
2022-10-22T21:27:54.237Z,19.45
2022-10-22T21:30:23.472Z,15.35
2022-10-22T21:32:50.029Z,17.73
2022-10-22T21:35:16.534Z,15.50
2022-10-22T21:37:43.289Z,18.63
2022-10-22T21:40:10.630Z,19.88
2022-10-22T21:42:37.423Z,20.10
2022-10-22T21:45:06.973Z,18.77
2022-10-22T21:47:35.697Z,22.55
2022-10-22T21:50:02.273Z,14.90
2022-10-22T21:52:28.769Z,19.52
2022-10-22T21:54:55.261Z,16.83
2022-10-22T21:57:21.730Z,25.27
2022-10-22T21:59:48.213Z,16.98
2022-10-22T22:02:14.724Z,19.40
2022-10-22T22:04:41.232Z,19.02
2022-10-22T22:07:07.791Z,26.77
2022-10-22T22:09:34.318Z,25.65
2022-10-22T22:12:00.830Z,21.63
2022-10-22T22:14:27.324Z,24.03
2022-10-22T22:16:53.828Z,16.65
2022-10-22T22:19:20.355Z,21.88
2022-10-22T22:21:46.859Z,21.52
2022-10-22T22:24:13.807Z,18.88
2022-10-22T22:26:41.624Z,17.97
2022-10-22T22:29:08.153Z,17.60
2022-10-22T22:31:35.723Z,20.25
2022-10-22T22:34:04.861Z,20.25
2022-10-22T22:36:39.179Z,20.50
2022-10-22T22:39:08.613Z,18.57
2022-10-22T22:41:35.120Z,18.90
2022-10-22T22:44:01.974Z,20.35
2022-10-22T22:46:29.112Z,22.42
2022-10-22T22:48:55.644Z,19.98
2022-10-22T22:51:22.290Z,22.90
2022-10-22T22:53:48.930Z,19.77
2022-10-22T22:56:19.157Z,20.60
2022-10-22T22:58:46.085Z,19.50
2022-10-22T23:01:24.773Z,24.40
2022-10-22T23:03:56.558Z,17.77
2022-10-22T23:06:25.383Z,21.00
2022-10-22T23:08:53.129Z,21.73
2022-10-22T23:11:20.696Z,18.02
2022-10-22T23:13:47.836Z,19.27
2022-10-22T23:16:17.703Z,22.23
2022-10-22T23:18:45.768Z,25.77
2022-10-22T23:21:17.794Z,18.77
2022-10-22T23:23:52.994Z,22.77
2022-10-22T23:26:25.665Z,17.08
2022-10-22T23:28:52.260Z,20.70
2022-10-22T23:31:21.618Z,19.70
2022-10-22T23:33:48.655Z,24.63
2022-10-22T23:36:15.403Z,26.05
2022-10-22T23:38:42.431Z,23.25
2022-10-22T23:41:09.210Z,18.13
2022-10-22T23:43:37.872Z,19.77
2022-10-22T23:46:09.504Z,24.63
2022-10-22T23:48:37.415Z,19.60
2022-10-22T23:51:10.489Z,21.08
2022-10-22T23:53:37.498Z,23.80
2022-10-22T23:56:09.757Z,16.00
2022-10-22T23:58:37.093Z,18.65
